createdAt,value
2022-08-17T00:00:18.250Z,94945.38
2022-08-17T00:03:13.688Z,94942.19
2022-08-17T00:05:44.471Z,94943.31
2022-08-17T00:08:14.715Z,94943.00
2022-08-17T00:10:46.101Z,94940.09
2022-08-17T00:13:17.590Z,94926.78
2022-08-17T00:15:45.440Z,94932.56
2022-08-17T00:18:58.207Z,94927.28
2022-08-17T00:21:04.870Z,94925.19
2022-08-17T00:23:39.142Z,94932.91
2022-08-17T00:26:43.477Z,94925.25
2022-08-17T00:29:06.256Z,94919.63
2022-08-17T00:31:35.545Z,94922.69
2022-08-17T00:34:03.977Z,94917.88
2022-08-17T00:36:31.923Z,94915.59
2022-08-17T00:38:59.738Z,94920.41
2022-08-17T00:41:30.997Z,94917.53
2022-08-17T00:44:02.876Z,94913.88
2022-08-17T00:46:33.194Z,94911.13
2022-08-17T00:49:01.006Z,94910.50
2022-08-17T00:51:33.582Z,94910.19
2022-08-17T00:54:12.058Z,94909.59
2022-08-17T00:56:45.556Z,94903.50
2022-08-17T00:59:17.961Z,94898.53
2022-08-17T01:01:46.439Z,94905.09
2022-08-17T01:04:15.055Z,94908.47
2022-08-17T01:06:46.909Z,94910.25
2022-08-17T01:09:15.527Z,94908.50
2022-08-17T01:11:46.570Z,94905.47
2022-08-17T01:14:14.563Z,94903.50
2022-08-17T01:16:42.370Z,94907.69
2022-08-17T01:19:16.161Z,94908.00
2022-08-17T01:21:50.761Z,94910.41
2022-08-17T01:24:20.209Z,94907.38
2022-08-17T01:26:48.618Z,94905.59
2022-08-17T01:29:17.527Z,94913.00
2022-08-17T01:31:47.982Z,94913.16
2022-08-17T01:34:17.629Z,94912.34
2022-08-17T01:36:47.196Z,94912.97
2022-08-17T01:39:23.059Z,94922.31
2022-08-17T01:41:52.837Z,94922.78
2022-08-17T01:44:21.550Z,94914.28
2022-08-17T01:46:49.357Z,94917.81
2022-08-17T01:49:17.107Z,94906.56
2022-08-17T01:51:44.851Z,94912.31
2022-08-17T01:54:19.604Z,94915.53
2022-08-17T01:56:51.734Z,94908.63
2022-08-17T01:59:20.748Z,94901.25
2022-08-17T02:01:48.954Z,94911.72
2022-08-17T02:04:17.311Z,94906.25
2022-08-17T02:06:53.350Z,94905.44
2022-08-17T02:09:24.105Z,94901.28
2022-08-17T02:11:55.188Z,94900.63
2022-08-17T02:14:25.081Z,94891.81
2022-08-17T02:16:53.756Z,94900.94
2022-08-17T02:19:22.268Z,94900.75
2022-08-17T02:21:52.592Z,94903.31
2022-08-17T02:24:59.900Z,94905.88
2022-08-17T02:27:13.645Z,94910.38
2022-08-17T02:29:41.433Z,94913.13
2022-08-17T02:32:20.767Z,94918.22
2022-08-17T02:34:55.092Z,94908.59
2022-08-17T02:37:22.898Z,94900.56
2022-08-17T02:39:50.751Z,94894.94
2022-08-17T02:42:19.882Z,94889.53
2022-08-17T02:44:47.976Z,94890.16
2022-08-17T02:47:15.716Z,94882.94
2022-08-17T02:49:54.119Z,94884.25
2022-08-17T02:52:43.442Z,94880.69
2022-08-17T02:55:14.220Z,94878.28
2022-08-17T02:57:43.441Z,94880.19
2022-08-17T03:00:14.648Z,94881.00
2022-08-17T03:02:44.011Z,94876.03
2022-08-17T03:05:15.106Z,94870.91
2022-08-17T03:07:43.047Z,94879.38
2022-08-17T03:10:12.512Z,94877.31
2022-08-17T03:12:43.271Z,94880.34
2022-08-17T03:15:16.359Z,94873.47
2022-08-17T03:17:44.546Z,94872.31
2022-08-17T03:20:13.907Z,94870.38
2022-08-17T03:22:43.358Z,94875.84
2022-08-17T03:25:21.420Z,94872.47
2022-08-17T03:27:51.414Z,94872.81
2022-08-17T03:30:22.415Z,94880.81
2022-08-17T03:32:54.728Z,94881.25
2022-08-17T03:35:25.527Z,94880.78
2022-08-17T03:38:00.217Z,94877.09
2022-08-17T03:40:55.130Z,94885.09
2022-08-17T03:43:19.367Z,94882.34
2022-08-17T03:46:06.290Z,94881.56
2022-08-17T03:49:11.331Z,94896.41
2022-08-17T03:51:56.789Z,94892.53
2022-08-17T03:54:42.014Z,94897.34
2022-08-17T03:57:11.750Z,94901.69
2022-08-17T03:59:40.565Z,94899.09
2022-08-17T04:02:14.353Z,94909.53
2022-08-17T04:04:42.166Z,94901.25
2022-08-17T04:07:10.374Z,94903.19
2022-08-17T04:09:38.163Z,94906.69
2022-08-17T04:12:06.637Z,94908.44
2022-08-17T04:14:36.686Z,94901.25
2022-08-17T04:17:24.761Z,94912.25
2022-08-17T04:19:52.951Z,94911.47
2022-08-17T04:22:32.537Z,94902.47
2022-08-17T04:25:08.617Z,94891.72
2022-08-17T04:27:36.846Z,94890.91
2022-08-17T04:30:07.641Z,94892.22
2022-08-17T04:33:09.893Z,94883.09
2022-08-17T04:35:41.178Z,94891.28
2022-08-17T04:38:10.814Z,94886.19
2022-08-17T04:40:56.604Z,94891.84
2022-08-17T04:43:25.902Z,94890.09
2022-08-17T04:45:56.625Z,94894.13
2022-08-17T04:48:35.500Z,94893.66
2022-08-17T04:51:09.758Z,94886.44
2022-08-17T04:53:38.443Z,94892.38
2022-08-17T04:56:06.747Z,94886.63
2022-08-17T04:58:35.092Z,94879.28
2022-08-17T05:01:02.885Z,94884.56
2022-08-17T05:03:32.140Z,94878.97
2022-08-17T05:05:59.923Z,94878.16
2022-08-17T05:08:27.773Z,94875.72
2022-08-17T05:10:55.909Z,94884.84
2022-08-17T05:13:26.824Z,94884.50
2022-08-17T05:15:58.195Z,94888.19
2022-08-17T05:18:26.393Z,94881.22
2022-08-17T05:20:56.018Z,94883.44
2022-08-17T05:23:26.189Z,94880.63
2022-08-17T05:25:56.323Z,94880.91
2022-08-17T05:28:27.487Z,94883.41
2022-08-17T05:30:57.276Z,94885.56
2022-08-17T05:33:27.751Z,94879.47
2022-08-17T05:35:59.003Z,94875.91
2022-08-17T05:38:28.901Z,94875.97
2022-08-17T05:41:08.031Z,94880.03
2022-08-17T05:43:38.587Z,94871.53
2022-08-17T05:46:11.897Z,94874.31
2022-08-17T05:48:45.476Z,94868.91
2022-08-17T05:51:28.839Z,94880.22
2022-08-17T05:54:08.058Z,94881.88
2022-08-17T05:57:04.228Z,94885.31
2022-08-17T05:59:43.146Z,94894.94
2022-08-17T06:02:20.331Z,94888.53
2022-08-17T06:05:06.542Z,94881.78
2022-08-17T06:07:46.082Z,94884.13
2022-08-17T06:10:19.116Z,94889.22
2022-08-17T06:13:01.465Z,94897.53
2022-08-17T06:15:33.665Z,94897.03
2022-08-17T06:18:05.374Z,94898.16
2022-08-17T06:20:41.104Z,94905.88
2022-08-17T06:23:14.271Z,94900.22
2022-08-17T06:25:47.321Z,94896.97
2022-08-17T06:28:21.876Z,94890.94
2022-08-17T06:30:59.407Z,94902.69
2022-08-17T06:33:37.103Z,94900.38
2022-08-17T06:36:19.146Z,94902.72
2022-08-17T06:38:56.578Z,94907.94
2022-08-17T06:41:31.458Z,94903.25
2022-08-17T06:44:10.932Z,94910.34
2022-08-17T06:46:42.480Z,94918.19
2022-08-17T06:49:21.742Z,94916.88
2022-08-17T06:51:54.694Z,94918.78
2022-08-17T06:54:34.930Z,94917.91
2022-08-17T06:57:14.528Z,94921.75
2022-08-17T06:59:55.843Z,94918.53
2022-08-17T07:02:52.414Z,94924.03
2022-08-17T07:05:23.384Z,94924.47
2022-08-17T07:08:04.543Z,94929.84
2022-08-17T07:10:44.392Z,94930.53
2022-08-17T07:13:30.697Z,94932.72
2022-08-17T07:16:08.609Z,94933.78
2022-08-17T07:18:36.369Z,94944.78
2022-08-17T07:21:22.874Z,94949.78
2022-08-17T07:24:04.336Z,94950.13
2022-08-17T07:26:33.541Z,94954.69
2022-08-17T07:29:02.574Z,94962.81
2022-08-17T07:31:33.490Z,94943.13
2022-08-17T07:34:06.804Z,94952.78
2022-08-17T07:36:35.248Z,94948.97
2022-08-17T07:39:04.890Z,94950.69
2022-08-17T07:41:57.476Z,94956.78
2022-08-17T07:44:27.731Z,94954.09
2022-08-17T07:47:13.612Z,94946.31
2022-08-17T07:49:41.949Z,94959.84
2022-08-17T07:52:24.245Z,94958.81
2022-08-17T07:55:00.524Z,94961.72
2022-08-17T07:57:36.466Z,94966.97
2022-08-17T08:00:16.274Z,94964.31
2022-08-17T08:02:47.926Z,94972.66
2022-08-17T08:05:48.606Z,94973.44
2022-08-17T08:08:28.235Z,94971.97
2022-08-17T08:11:03.745Z,94961.78
2022-08-17T08:13:33.295Z,94967.75
2022-08-17T08:16:24.408Z,94963.09
2022-08-17T08:18:57.365Z,94956.41
2022-08-17T08:21:44.138Z,94955.22
2022-08-17T08:24:31.260Z,94958.38
2022-08-17T08:27:11.098Z,94960.00
2022-08-17T08:29:49.988Z,94962.78
2022-08-17T08:32:25.193Z,94953.69
2022-08-17T08:35:03.656Z,94947.75
2022-08-17T08:37:44.475Z,94941.75
2022-08-17T08:40:30.324Z,94947.75
2022-08-17T08:43:04.452Z,94947.81
2022-08-17T08:45:46.189Z,94951.41
2022-08-17T08:48:53.026Z,94952.16
2022-08-17T08:51:27.664Z,94956.94
2022-08-17T08:54:04.599Z,94956.53
2022-08-17T08:56:38.587Z,94944.25
2022-08-17T08:59:18.985Z,94943.88
2022-08-17T09:01:59.772Z,94941.06
2022-08-17T09:05:12.891Z,94936.28
2022-08-17T09:07:44.848Z,94935.47
2022-08-17T09:10:21.099Z,94948.22
2022-08-17T09:13:09.368Z,94947.41
2022-08-17T09:15:44.027Z,94949.31
2022-08-17T09:18:59.983Z,94952.03
2022-08-17T09:21:15.439Z,94952.09
2022-08-17T09:23:59.657Z,94948.97
2022-08-17T09:26:32.370Z,94943.34
2022-08-17T09:29:07.279Z,94933.34
2022-08-17T09:31:48.766Z,94926.84
2022-08-17T09:34:32.112Z,94940.75
2022-08-17T09:37:15.037Z,94945.84
2022-08-17T09:39:48.054Z,94940.56
2022-08-17T09:42:22.723Z,94930.06
2022-08-17T09:44:57.440Z,94934.63
2022-08-17T09:47:31.677Z,94934.94
2022-08-17T09:50:07.109Z,94938.44
2022-08-17T09:52:34.738Z,94936.41
2022-08-17T09:55:02.844Z,94932.88
2022-08-17T09:57:44.921Z,94929.56
2022-08-17T10:00:20.537Z,94935.53
2022-08-17T10:03:18.076Z,94943.78
2022-08-17T10:05:56.286Z,94945.13
2022-08-17T10:08:33.824Z,94947.69
2022-08-17T10:11:15.225Z,94948.91
2022-08-17T10:13:52.998Z,94951.22
2022-08-17T10:16:28.469Z,94950.28
2022-08-17T10:19:06.302Z,94938.94
2022-08-17T10:22:00.913Z,94940.97
2022-08-17T10:25:21.727Z,94930.47
2022-08-17T10:27:44.942Z,94929.00
2022-08-17T10:30:18.169Z,94923.72
2022-08-17T10:32:49.682Z,94928.38
2022-08-17T10:35:27.653Z,94918.75
2022-08-17T10:38:24.530Z,94927.63
2022-08-17T10:40:57.400Z,94916.81
2022-08-17T10:43:38.398Z,94919.72
2022-08-17T10:46:30.216Z,94929.44
2022-08-17T10:49:22.878Z,94932.31
2022-08-17T10:51:54.308Z,94936.00
2022-08-17T10:54:45.406Z,94934.25
2022-08-17T10:57:36.602Z,94935.91
2022-08-17T11:00:12.878Z,94936.84
2022-08-17T11:02:45.732Z,94938.63
2022-08-17T11:05:43.786Z,94932.16
2022-08-17T11:08:33.755Z,94929.66
2022-08-17T11:11:47.452Z,94930.09
2022-08-17T11:14:26.625Z,94934.97
2022-08-17T11:17:13.082Z,94937.72
2022-08-17T11:19:57.820Z,94936.72
2022-08-17T11:23:03.803Z,94935.00
2022-08-17T11:25:39.493Z,94928.13
2022-08-17T11:28:15.259Z,94928.88
2022-08-17T11:30:53.796Z,94935.41
2022-08-17T11:33:58.072Z,94929.50
2022-08-17T11:36:52.579Z,94931.94
2022-08-17T11:39:37.791Z,94928.22
2022-08-17T11:42:17.859Z,94916.38
2022-08-17T11:44:54.331Z,94920.75
2022-08-17T11:48:09.047Z,94915.63
2022-08-17T11:51:06.094Z,94922.94
2022-08-17T11:56:59.936Z,94940.38
2022-08-17T11:59:59.061Z,94942.34
2022-08-17T12:02:48.248Z,94946.47
2022-08-17T12:05:40.767Z,94942.81
2022-08-17T12:08:15.887Z,94937.31
2022-08-17T12:10:55.343Z,94944.13
2022-08-17T12:13:30.509Z,94939.50
2022-08-17T12:16:09.926Z,94929.16
2022-08-17T12:18:39.779Z,94935.09
2022-08-17T12:21:20.665Z,94934.63
2022-08-17T12:23:56.990Z,94930.81
2022-08-17T12:26:30.319Z,94931.25
2022-08-17T12:29:01.361Z,94929.16
2022-08-17T12:31:35.441Z,94920.19
2022-08-17T12:34:04.382Z,94921.94
2022-08-17T12:36:33.932Z,94921.91
2022-08-17T12:39:13.786Z,94917.50
2022-08-17T12:41:45.071Z,94912.16
2022-08-17T12:44:15.759Z,94908.25
2022-08-17T12:46:52.281Z,94905.44
2022-08-17T12:49:30.666Z,94891.63
2022-08-17T12:52:09.393Z,94892.56
2022-08-17T12:54:57.070Z,94899.22
2022-08-17T12:57:29.202Z,94886.06
2022-08-17T13:00:00.189Z,94896.94
2022-08-17T13:02:45.082Z,94893.69
2022-08-17T13:05:25.150Z,94895.00
2022-08-17T13:07:54.518Z,94892.19
2022-08-17T13:10:32.133Z,94894.00
2022-08-17T13:13:04.880Z,94882.53
2022-08-17T13:15:38.328Z,94891.16
2022-08-17T13:18:39.485Z,94894.31
2022-08-17T13:21:12.115Z,94886.75
2022-08-17T13:23:39.935Z,94897.38
2022-08-17T13:26:17.546Z,94886.34
2022-08-17T13:28:49.638Z,94885.63
2022-08-17T13:31:32.288Z,94882.00
2022-08-17T13:34:18.174Z,94888.94
2022-08-17T13:36:48.773Z,94893.53
2022-08-17T13:39:21.389Z,94884.38
2022-08-17T13:41:50.866Z,94887.97
2022-08-17T13:44:31.896Z,94887.63
2022-08-17T13:47:00.662Z,94892.09
2022-08-17T13:49:48.260Z,94881.41
2022-08-17T13:52:37.844Z,94875.22
2022-08-17T13:55:16.069Z,94888.84
2022-08-17T13:57:47.023Z,94888.16
2022-08-17T14:00:19.767Z,94871.47
2022-08-17T14:02:47.481Z,94872.34
2022-08-17T14:05:16.830Z,94872.72
2022-08-17T14:07:44.719Z,94870.25
2022-08-17T14:10:17.280Z,94870.00
2022-08-17T14:12:46.251Z,94860.25
2022-08-17T14:15:16.656Z,94850.59
2022-08-17T14:17:44.427Z,94850.63
2022-08-17T14:20:13.705Z,94851.34
2022-08-17T14:22:47.213Z,94843.44
2022-08-17T14:25:17.588Z,94835.34
2022-08-17T14:27:52.083Z,94842.13
2022-08-17T14:30:23.735Z,94833.22
2022-08-17T14:32:52.023Z,94826.28
2022-08-17T14:35:22.350Z,94821.28
2022-08-17T14:37:51.876Z,94822.09
2022-08-17T14:40:24.798Z,94817.59
2022-08-17T14:42:55.141Z,94805.34
2022-08-17T14:45:29.628Z,94807.69
2022-08-17T14:48:01.956Z,94812.16
2022-08-17T14:50:29.703Z,94816.56
2022-08-17T14:53:01.345Z,94808.13
2022-08-17T14:55:29.821Z,94816.00
2022-08-17T14:57:57.772Z,94802.53
2022-08-17T15:00:26.057Z,94802.44
2022-08-17T15:02:56.583Z,94804.03
2022-08-17T15:05:27.498Z,94795.69
2022-08-17T15:07:55.732Z,94793.03
2022-08-17T15:10:26.041Z,94798.50
2022-08-17T15:12:53.868Z,94815.56
2022-08-17T15:15:22.241Z,94813.75
2022-08-17T15:17:51.562Z,94817.25
2022-08-17T15:20:21.708Z,94806.28
2022-08-17T15:22:50.551Z,94816.63
2022-08-17T15:25:22.095Z,94814.00
2022-08-17T15:27:51.357Z,94824.91
2022-08-17T15:30:19.323Z,94831.47
2022-08-17T15:32:54.415Z,94832.13
2022-08-17T15:35:28.250Z,94830.53
2022-08-17T15:37:58.212Z,94825.16
2022-08-17T15:40:26.121Z,94830.44
2022-08-17T15:42:55.314Z,94829.47
2022-08-17T15:45:26.960Z,94815.00
2022-08-17T15:47:54.927Z,94815.53
2022-08-17T15:50:22.764Z,94816.69
2022-08-17T15:52:57.490Z,94813.63
2022-08-17T15:55:26.737Z,94817.69
2022-08-17T15:57:55.847Z,94827.22
2022-08-17T16:00:24.721Z,94822.78
2022-08-17T16:03:15.422Z,94821.97
2022-08-17T16:05:41.069Z,94823.16
2022-08-17T16:08:10.909Z,94828.09
2022-08-17T16:10:39.008Z,94823.13
2022-08-17T16:13:17.358Z,94834.00
2022-08-17T16:15:51.088Z,94835.72
2022-08-17T16:18:28.225Z,94829.31
2022-08-17T16:20:56.276Z,94823.91
2022-08-17T16:23:24.340Z,94823.75
2022-08-17T16:25:53.534Z,94831.09
2022-08-17T16:28:36.421Z,94816.91
2022-08-17T16:31:08.009Z,94815.69
2022-08-17T16:33:39.332Z,94815.13
2022-08-17T16:36:08.525Z,94818.81
2022-08-17T16:38:36.794Z,94823.72
2022-08-17T16:41:05.712Z,94809.66
2022-08-17T16:43:35.587Z,94816.72
2022-08-17T16:46:03.694Z,94812.88
2022-08-17T16:48:31.995Z,94810.03
2022-08-17T16:51:04.439Z,94807.94
2022-08-17T16:53:32.618Z,94814.88
2022-08-17T16:56:00.408Z,94814.59
2022-08-17T16:58:28.274Z,94810.06
2022-08-17T17:00:59.413Z,94803.59
2022-08-17T17:03:29.184Z,94800.34
2022-08-17T17:06:09.833Z,94806.25
2022-08-17T17:08:44.896Z,94797.59
2022-08-17T17:11:15.607Z,94791.38
2022-08-17T17:13:47.957Z,94783.56
2022-08-17T17:16:21.775Z,94789.53
2022-08-17T17:19:04.565Z,94789.31
2022-08-17T17:21:42.401Z,94779.59
2022-08-17T17:24:17.553Z,94779.75
2022-08-17T17:27:07.366Z,94773.78
2022-08-17T17:29:47.710Z,94767.59
2022-08-17T17:32:22.540Z,94775.00
2022-08-17T17:34:56.525Z,94767.50
2022-08-17T17:37:32.331Z,94775.66
2022-08-17T17:40:04.978Z,94769.78
2022-08-17T17:42:33.601Z,94773.53
2022-08-17T17:45:08.712Z,94785.66
2022-08-17T17:47:38.324Z,94787.78
2022-08-17T17:50:08.417Z,94781.56
2022-08-17T17:52:47.412Z,94785.25
2022-08-17T17:55:34.333Z,94787.06
2022-08-17T17:58:13.732Z,94784.06
2022-08-17T18:00:49.577Z,94783.88
2022-08-17T18:03:43.451Z,94775.66
2022-08-17T18:06:26.873Z,94766.28
2022-08-17T18:09:08.677Z,94754.78
2022-08-17T18:11:58.938Z,94758.09
2022-08-17T18:14:42.188Z,94757.00
2022-08-17T18:17:11.976Z,94745.53
2022-08-17T18:19:41.505Z,94748.81
2022-08-17T18:22:14.545Z,94752.53
2022-08-17T18:24:44.220Z,94749.00
2022-08-17T18:27:21.615Z,94756.25
2022-08-17T18:29:51.102Z,94764.72
2022-08-17T18:32:34.161Z,94758.06
2022-08-17T18:35:27.889Z,94758.53
2022-08-17T18:38:00.399Z,94771.72
2022-08-17T18:40:35.453Z,94772.97
2022-08-17T18:43:08.598Z,94777.81
2022-08-17T18:45:41.038Z,94772.25
2022-08-17T18:48:29.821Z,94767.13
2022-08-17T18:51:21.086Z,94768.31
2022-08-17T18:54:18.437Z,94769.13
2022-08-17T18:56:52.108Z,94769.47
2022-08-17T18:59:29.258Z,94776.97
2022-08-17T19:02:34.520Z,94769.81
2022-08-17T19:05:13.359Z,94760.28
2022-08-17T19:07:45.228Z,94753.50
2022-08-17T19:10:20.638Z,94753.50
2022-08-17T19:12:52.819Z,94743.16
2022-08-17T19:15:27.962Z,94738.75
2022-08-17T19:18:01.754Z,94743.06
2022-08-17T19:20:33.166Z,94741.84
2022-08-17T19:23:09.772Z,94752.47
2022-08-17T19:25:44.071Z,94762.69
2022-08-17T19:28:22.327Z,94769.75
2022-08-17T19:30:55.755Z,94770.09
2022-08-17T19:33:23.845Z,94776.41
2022-08-17T19:36:00.616Z,94775.63
2022-08-17T19:38:41.497Z,94792.91
2022-08-17T19:41:18.543Z,94791.28
2022-08-17T19:44:00.285Z,94798.38
2022-08-17T19:46:36.912Z,94791.22
2022-08-17T19:49:17.078Z,94795.16
2022-08-17T19:51:52.260Z,94795.09
2022-08-17T19:54:31.011Z,94797.44
2022-08-17T19:57:10.511Z,94792.28
2022-08-17T19:59:50.224Z,94792.69
2022-08-17T20:02:29.409Z,94789.09
2022-08-17T20:05:01.535Z,94797.78
2022-08-17T20:07:35.685Z,94788.69
2022-08-17T20:10:09.433Z,94802.50
2022-08-17T20:12:41.074Z,94798.06
2022-08-17T20:15:12.316Z,94804.75
2022-08-17T20:17:43.349Z,94795.59
2022-08-17T20:20:23.357Z,94796.03
2022-08-17T20:22:55.741Z,94799.22
2022-08-17T20:25:32.157Z,94798.03
2022-08-17T20:28:06.305Z,94798.47
2022-08-17T20:30:38.978Z,94788.16
2022-08-17T20:33:12.500Z,94788.56
2022-08-17T20:36:00.527Z,94785.78
2022-08-17T20:38:41.465Z,94784.56
2022-08-17T20:41:16.698Z,94779.47
2022-08-17T20:43:52.233Z,94766.38
2022-08-17T20:46:31.444Z,94758.81
2022-08-17T20:49:14.988Z,94755.31
2022-08-17T20:52:01.657Z,94747.38
2022-08-17T20:54:47.593Z,94743.03
2022-08-17T20:57:47.368Z,94758.00
2022-08-17T21:00:42.446Z,94748.81
2022-08-17T21:03:50.301Z,94747.59
2022-08-17T21:06:22.672Z,94756.69
2022-08-17T21:08:58.408Z,94757.88
2022-08-17T21:12:03.924Z,94759.84
2022-08-17T21:14:59.765Z,94763.41
2022-08-17T21:17:59.234Z,94757.75
2022-08-17T21:20:32.965Z,94752.22
2022-08-17T21:23:27.617Z,94748.28
2022-08-17T21:26:19.892Z,94745.88
2022-08-17T21:29:17.923Z,94754.13
2022-08-17T21:32:24.578Z,94746.63
2022-08-17T21:35:29.953Z,94747.06
2022-08-17T21:38:03.919Z,94741.16
2022-08-17T21:40:34.057Z,94756.16
2022-08-17T21:43:17.628Z,94754.56
2022-08-17T21:45:56.687Z,94757.38
2022-08-17T21:48:27.340Z,94747.91
2022-08-17T21:51:03.689Z,94753.91
2022-08-17T21:53:38.728Z,94749.53
2022-08-17T21:56:07.937Z,94753.44
2022-08-17T21:58:40.280Z,94753.06
2022-08-17T22:01:23.650Z,94757.41
2022-08-17T22:04:08.570Z,94757.84
2022-08-17T22:06:39.666Z,94764.59
2022-08-17T22:09:15.947Z,94767.81
2022-08-17T22:11:53.255Z,94777.56
2022-08-17T22:14:22.475Z,94779.47
2022-08-17T22:17:07.365Z,94796.69
2022-08-17T22:19:38.233Z,94806.91
2022-08-17T22:22:09.014Z,94819.66
2022-08-17T22:24:36.985Z,94834.97
2022-08-17T22:27:11.405Z,94834.38
2022-08-17T22:29:57.537Z,94847.53
2022-08-17T22:32:42.451Z,94874.16
2022-08-17T22:35:28.422Z,94885.41
2022-08-17T22:37:56.303Z,94906.09
2022-08-17T22:40:30.471Z,94929.25
2022-08-17T22:42:59.770Z,94961.16
2022-08-17T22:45:29.709Z,94975.75
2022-08-17T22:47:59.907Z,94983.03
2022-08-17T22:50:30.957Z,94974.59
2022-08-17T22:53:19.311Z,94982.81
2022-08-17T22:56:09.320Z,94989.78
2022-08-17T22:59:02.376Z,94978.84
2022-08-17T23:06:58.932Z,94976.69
2022-08-17T23:09:26.680Z,94985.84
2022-08-17T23:11:58.708Z,94993.09
2022-08-17T23:14:31.299Z,94991.41
2022-08-17T23:17:00.675Z,95001.88
2022-08-17T23:19:31.353Z,95010.41
2022-08-17T23:22:05.029Z,94998.34
2022-08-17T23:24:45.021Z,95010.31
2022-08-17T23:27:13.153Z,95007.47
2022-08-17T23:29:41.944Z,95001.03
2022-08-17T23:32:14.620Z,95003.34
2022-08-17T23:34:45.211Z,95002.75
2022-08-17T23:37:15.120Z,95023.88
2022-08-17T23:39:44.981Z,95016.31
2022-08-17T23:42:16.151Z,95034.66
2022-08-17T23:44:44.068Z,95048.84
2022-08-17T23:47:12.337Z,95063.06
2022-08-17T23:49:40.516Z,95070.47
2022-08-17T23:52:12.570Z,95068.69
2022-08-17T23:54:46.731Z,95077.53
2022-08-17T23:57:16.491Z,95075.66
2022-08-17T23:59:44.886Z,95083.28
